sensor_id;sensor_type;location;lat;lon;timestamp;pressure;altitude;pressure_sealevel;temperature;humidity
61055;BME280;46939;48.940;8.258;2022-09-16T00:00:00;99865.59;;;20.25;61.51
61055;BME280;46939;48.940;8.258;2022-09-16T00:02:30;99860.22;;;20.25;61.21
61055;BME280;46939;48.940;8.258;2022-09-16T00:04:59;99857.78;;;20.23;61.03
61055;BME280;46939;48.940;8.258;2022-09-16T00:07:34;99859.69;;;20.23;61.33
61055;BME280;46939;48.940;8.258;2022-09-16T00:10:05;99853.22;;;20.19;61.80
61055;BME280;46939;48.940;8.258;2022-09-16T00:12:34;99847.03;;;20.18;61.41
61055;BME280;46939;48.940;8.258;2022-09-16T00:15:04;99849.44;;;20.25;61.10
61055;BME280;46939;48.940;8.258;2022-09-16T00:17:33;99845.16;;;20.24;61.39
61055;BME280;46939;48.940;8.258;2022-09-16T00:20:03;99826.31;;;20.19;61.34
61055;BME280;46939;48.940;8.258;2022-09-16T00:22:37;99828.50;;;20.22;61.15
61055;BME280;46939;48.940;8.258;2022-09-16T00:25:08;99837.06;;;20.19;61.32
61055;BME280;46939;48.940;8.258;2022-09-16T00:27:36;99850.00;;;20.22;61.50
61055;BME280;46939;48.940;8.258;2022-09-16T00:30:06;99850.78;;;20.17;61.26
61055;BME280;46939;48.940;8.258;2022-09-16T00:32:35;99847.56;;;20.15;61.62
61055;BME280;46939;48.940;8.258;2022-09-16T00:35:05;99844.59;;;20.17;61.25
61055;BME280;46939;48.940;8.258;2022-09-16T00:37:36;99853.72;;;20.16;61.13
61055;BME280;46939;48.940;8.258;2022-09-16T00:40:05;99844.84;;;20.10;61.35
61055;BME280;46939;48.940;8.258;2022-09-16T00:42:38;99846.69;;;20.05;61.11
61055;BME280;46939;48.940;8.258;2022-09-16T00:45:14;99844.81;;;20.05;61.13
61055;BME280;46939;48.940;8.258;2022-09-16T00:47:45;99835.66;;;20.01;60.81
61055;BME280;46939;48.940;8.258;2022-09-16T00:50:18;99849.34;;;19.94;60.73
61055;BME280;46939;48.940;8.258;2022-09-16T00:52:51;99851.50;;;19.97;60.78
61055;BME280;46939;48.940;8.258;2022-09-16T00:55:25;99844.75;;;19.90;61.00
61055;BME280;46939;48.940;8.258;2022-09-16T00:57:58;99846.34;;;19.86;61.07
61055;BME280;46939;48.940;8.258;2022-09-16T01:00:30;99845.22;;;19.77;61.07
61055;BME280;46939;48.940;8.258;2022-09-16T01:02:59;99852.78;;;19.80;61.30
61055;BME280;46939;48.940;8.258;2022-09-16T01:05:28;99851.41;;;19.77;61.19
61055;BME280;46939;48.940;8.258;2022-09-16T01:07:59;99835.28;;;19.77;61.21
61055;BME280;46939;48.940;8.258;2022-09-16T01:10:29;99851.13;;;19.79;61.56
61055;BME280;46939;48.940;8.258;2022-09-16T01:13:00;99853.59;;;19.80;61.31
61055;BME280;46939;48.940;8.258;2022-09-16T01:15:34;99851.94;;;19.74;61.56
61055;BME280;46939;48.940;8.258;2022-09-16T01:18:06;99850.59;;;19.77;61.66
61055;BME280;46939;48.940;8.258;2022-09-16T01:20:57;99845.53;;;19.80;61.30
61055;BME280;46939;48.940;8.258;2022-09-16T01:23:55;99839.84;;;19.77;61.74
61055;BME280;46939;48.940;8.258;2022-09-16T01:32:41;99835.00;;;19.73;61.55
61055;BME280;46939;48.940;8.258;2022-09-16T01:35:19;99836.38;;;19.76;61.46
61055;BME280;46939;48.940;8.258;2022-09-16T01:37:58;99837.41;;;19.75;61.51
61055;BME280;46939;48.940;8.258;2022-09-16T01:40:33;99837.97;;;19.72;61.62
61055;BME280;46939;48.940;8.258;2022-09-16T01:43:12;99836.59;;;19.74;61.69
61055;BME280;46939;48.940;8.258;2022-09-16T01:45:50;99830.69;;;19.72;62.22
61055;BME280;46939;48.940;8.258;2022-09-16T01:48:27;99827.72;;;19.69;62.17
61055;BME280;46939;48.940;8.258;2022-09-16T01:51:03;99830.13;;;19.65;61.87
61055;BME280;46939;48.940;8.258;2022-09-16T01:53:36;99828.50;;;19.64;62.03
61055;BME280;46939;48.940;8.258;2022-09-16T01:56:11;99832.53;;;19.67;62.40
61055;BME280;46939;48.940;8.258;2022-09-16T01:58:46;99830.84;;;19.56;62.33
61055;BME280;46939;48.940;8.258;2022-09-16T02:01:21;99826.53;;;19.55;61.99
61055;BME280;46939;48.940;8.258;2022-09-16T02:03:59;99827.84;;;19.47;62.24
61055;BME280;46939;48.940;8.258;2022-09-16T02:06:30;99828.69;;;19.52;62.39
61055;BME280;46939;48.940;8.258;2022-09-16T02:09:03;99829.50;;;19.58;62.37
61055;BME280;46939;48.940;8.258;2022-09-16T02:11:34;99829.25;;;19.60;62.47
61055;BME280;46939;48.940;8.258;2022-09-16T02:14:07;99838.72;;;19.67;62.03
61055;BME280;46939;48.940;8.258;2022-09-16T02:16:41;99838.47;;;19.69;62.25
61055;BME280;46939;48.940;8.258;2022-09-16T02:19:19;99843.03;;;19.68;62.18
61055;BME280;46939;48.940;8.258;2022-09-16T02:21:48;99840.59;;;19.62;62.60
61055;BME280;46939;48.940;8.258;2022-09-16T02:24:20;99844.88;;;19.63;62.74
61055;BME280;46939;48.940;8.258;2022-09-16T02:26:52;99847.06;;;19.66;62.27
61055;BME280;46939;48.940;8.258;2022-09-16T02:29:24;99849.25;;;19.74;62.74
61055;BME280;46939;48.940;8.258;2022-09-16T02:31:57;99844.66;;;19.74;62.24
61055;BME280;46939;48.940;8.258;2022-09-16T02:34:33;99843.88;;;19.79;62.14
61055;BME280;46939;48.940;8.258;2022-09-16T02:37:05;99838.50;;;19.79;62.35
61055;BME280;46939;48.940;8.258;2022-09-16T02:39:36;99841.47;;;19.83;62.46
61055;BME280;46939;48.940;8.258;2022-09-16T02:42:09;99838.78;;;19.83;62.54
61055;BME280;46939;48.940;8.258;2022-09-16T02:44:37;99840.94;;;19.81;62.64
61055;BME280;46939;48.940;8.258;2022-09-16T02:47:10;99842.56;;;19.82;62.66
61055;BME280;46939;48.940;8.258;2022-09-16T02:49:49;99835.88;;;19.84;62.37
61055;BME280;46939;48.940;8.258;2022-09-16T02:52:23;99828.34;;;19.86;62.24
61055;BME280;46939;48.940;8.258;2022-09-16T02:55:01;99835.88;;;19.89;62.63
61055;BME280;46939;48.940;8.258;2022-09-16T02:57:30;99839.59;;;19.83;62.73
61055;BME280;46939;48.940;8.258;2022-09-16T02:59:59;99832.59;;;19.77;62.83
61055;BME280;46939;48.940;8.258;2022-09-16T03:02:27;99829.06;;;19.71;62.51
61055;BME280;46939;48.940;8.258;2022-09-16T03:04:59;99830.13;;;19.70;63.01
61055;BME280;46939;48.940;8.258;2022-09-16T03:07:28;99828.03;;;19.78;62.84
61055;BME280;46939;48.940;8.258;2022-09-16T03:09:57;99826.13;;;19.73;63.35
61055;BME280;46939;48.940;8.258;2022-09-16T03:12:49;99825.91;;;19.80;63.14
61055;BME280;46939;48.940;8.258;2022-09-16T03:15:45;99826.72;;;19.90;62.82
61055;BME280;46939;48.940;8.258;2022-09-16T03:18:37;99824.84;;;19.91;62.35
61055;BME280;46939;48.940;8.258;2022-09-16T03:21:16;99830.22;;;19.91;62.92
61055;BME280;46939;48.940;8.258;2022-09-16T03:23:50;99823.81;;;19.97;62.60
61055;BME280;46939;48.940;8.258;2022-09-16T03:26:32;99823.53;;;19.93;62.70
61055;BME280;46939;48.940;8.258;2022-09-16T03:29:09;99821.13;;;19.97;62.15
61055;BME280;46939;48.940;8.258;2022-09-16T03:31:45;99809.84;;;20.00;62.22
61055;BME280;46939;48.940;8.258;2022-09-16T03:34:20;99821.41;;;20.06;62.13
61055;BME280;46939;48.940;8.258;2022-09-16T03:36:57;99817.13;;;19.99;62.14
61055;BME280;46939;48.940;8.258;2022-09-16T03:39:27;99826.22;;;19.93;62.48
61055;BME280;46939;48.940;8.258;2022-09-16T03:41:59;99820.84;;;19.93;62.09
61055;BME280;46939;48.940;8.258;2022-09-16T03:44:32;99810.66;;;19.95;62.25
61055;BME280;46939;48.940;8.258;2022-09-16T03:47:01;99814.94;;;19.96;62.65
61055;BME280;46939;48.940;8.258;2022-09-16T03:49:29;99802.59;;;19.95;62.72
61055;BME280;46939;48.940;8.258;2022-09-16T03:52:01;99804.47;;;20.05;62.11
61055;BME280;46939;48.940;8.258;2022-09-16T03:54:30;99801.00;;;20.05;62.47
61055;BME280;46939;48.940;8.258;2022-09-16T03:56:59;99806.31;;;19.94;62.74
61055;BME280;46939;48.940;8.258;2022-09-16T03:59:28;99804.75;;;20.04;62.46
61055;BME280;46939;48.940;8.258;2022-09-16T04:01:56;99799.09;;;19.95;62.72
61055;BME280;46939;48.940;8.258;2022-09-16T04:04:25;99810.09;;;19.98;62.51
61055;BME280;46939;48.940;8.258;2022-09-16T04:06:54;99805.28;;;20.00;62.35
61055;BME280;46939;48.940;8.258;2022-09-16T04:09:25;99799.91;;;19.95;62.51
61055;BME280;46939;48.940;8.258;2022-09-16T04:11:53;99814.94;;;20.02;62.33
61055;BME280;46939;48.940;8.258;2022-09-16T04:14:22;99815.50;;;20.04;62.49
61055;BME280;46939;48.940;8.258;2022-09-16T04:16:50;99812.53;;;20.00;62.35
61055;BME280;46939;48.940;8.258;2022-09-16T04:19:19;99816.31;;;19.99;61.98
61055;BME280;46939;48.940;8.258;2022-09-16T04:21:48;99817.34;;;19.98;62.33
61055;BME280;46939;48.940;8.258;2022-09-16T04:24:17;99818.44;;;20.02;62.11
61055;BME280;46939;48.940;8.258;2022-09-16T04:26:48;99824.38;;;19.99;61.95
61055;BME280;46939;48.940;8.258;2022-09-16T04:29:16;99813.59;;;19.94;62.00
61055;BME280;46939;48.940;8.258;2022-09-16T04:31:45;99812.25;;;19.96;62.06
61055;BME280;46939;48.940;8.258;2022-09-16T04:34:14;99813.84;;;19.87;62.07
61055;BME280;46939;48.940;8.258;2022-09-16T04:36:42;99815.47;;;19.93;61.47
61055;BME280;46939;48.940;8.258;2022-09-16T04:39:11;99810.66;;;19.95;61.45
61055;BME280;46939;48.940;8.258;2022-09-16T04:41:39;99811.44;;;19.96;61.24
61055;BME280;46939;48.940;8.258;2022-09-16T04:44:11;99810.88;;;19.89;61.13
61055;BME280;46939;48.940;8.258;2022-09-16T04:46:39;99811.97;;;19.88;60.56
61055;BME280;46939;48.940;8.258;2022-09-16T04:49:10;99815.44;;;19.88;60.62
61055;BME280;46939;48.940;8.258;2022-09-16T04:51:40;99816.25;;;19.84;59.96
61055;BME280;46939;48.940;8.258;2022-09-16T04:54:08;99816.50;;;19.82;60.06
61055;BME280;46939;48.940;8.258;2022-09-16T04:56:37;99816.47;;;19.72;59.93
61055;BME280;46939;48.940;8.258;2022-09-16T04:59:05;99815.16;;;19.80;60.22
61055;BME280;46939;48.940;8.258;2022-09-16T05:01:38;99815.97;;;19.85;59.77
61055;BME280;46939;48.940;8.258;2022-09-16T05:04:08;99821.34;;;19.85;60.07
61055;BME280;46939;48.940;8.258;2022-09-16T05:06:39;99829.41;;;19.85;60.29
61055;BME280;46939;48.940;8.258;2022-09-16T05:09:10;99831.34;;;20.00;59.67
61055;BME280;46939;48.940;8.258;2022-09-16T05:11:40;99820.56;;;19.90;59.95
61055;BME280;46939;48.940;8.258;2022-09-16T05:14:12;99822.94;;;19.81;60.40
61055;BME280;46939;48.940;8.258;2022-09-16T05:16:44;99824.53;;;19.77;60.77
61055;BME280;46939;48.940;8.258;2022-09-16T05:19:13;99828.31;;;19.76;61.00
61055;BME280;46939;48.940;8.258;2022-09-16T05:21:42;99830.16;;;19.75;60.05
61055;BME280;46939;48.940;8.258;2022-09-16T05:24:12;99825.56;;;19.71;59.78
61055;BME280;46939;48.940;8.258;2022-09-16T05:26:41;99827.09;;;19.57;60.24
61055;BME280;46939;48.940;8.258;2022-09-16T05:29:14;99826.81;;;19.53;60.83
61055;BME280;46939;48.940;8.258;2022-09-16T05:31:46;99828.16;;;19.56;60.25
61055;BME280;46939;48.940;8.258;2022-09-16T05:34:16;99815.78;;;19.55;60.77
61055;BME280;46939;48.940;8.258;2022-09-16T05:36:46;99819.03;;;19.57;60.00
61055;BME280;46939;48.940;8.258;2022-09-16T05:39:18;99809.31;;;19.50;60.04
61055;BME280;46939;48.940;8.258;2022-09-16T05:41:47;99816.88;;;19.54;60.29
61055;BME280;46939;48.940;8.258;2022-09-16T05:44:16;99829.19;;;19.49;60.38
61055;BME280;46939;48.940;8.258;2022-09-16T05:46:47;99826.81;;;19.58;60.14
61055;BME280;46939;48.940;8.258;2022-09-16T05:49:16;99828.19;;;19.61;60.06
61055;BME280;46939;48.940;8.258;2022-09-16T05:51:46;99839.19;;;19.59;60.21
61055;BME280;46939;48.940;8.258;2022-09-16T05:54:15;99835.75;;;19.64;59.79
61055;BME280;46939;48.940;8.258;2022-09-16T05:56:45;99840.25;;;19.53;60.21
61055;BME280;46939;48.940;8.258;2022-09-16T05:59:14;99851.56;;;19.60;59.66
61055;BME280;46939;48.940;8.258;2022-09-16T06:01:46;99847.72;;;19.51;59.18
61055;BME280;46939;48.940;8.258;2022-09-16T06:04:15;99848.31;;;19.53;59.43
61055;BME280;46939;48.940;8.258;2022-09-16T06:06:45;99852.31;;;19.56;59.38
61055;BME280;46939;48.940;8.258;2022-09-16T06:09:16;99858.00;;;19.59;59.37
61055;BME280;46939;48.940;8.258;2022-09-16T06:11:46;99859.88;;;19.59;59.96
61055;BME280;46939;48.940;8.258;2022-09-16T06:14:16;99860.44;;;19.61;59.94
61055;BME280;46939;48.940;8.258;2022-09-16T06:16:49;99865.56;;;19.62;59.96
61055;BME280;46939;48.940;8.258;2022-09-16T06:19:18;99862.06;;;19.62;60.42
61055;BME280;46939;48.940;8.258;2022-09-16T06:21:47;99863.69;;;19.63;60.14
61055;BME280;46939;48.940;8.258;2022-09-16T06:24:16;99861.81;;;19.63;60.17
61055;BME280;46939;48.940;8.258;2022-09-16T06:26:47;99857.69;;;19.50;59.99
61055;BME280;46939;48.940;8.258;2022-09-16T06:29:16;99865.75;;;19.50;59.29
61055;BME280;46939;48.940;8.258;2022-09-16T06:31:45;99866.25;;;19.47;59.78
61055;BME280;46939;48.940;8.258;2022-09-16T06:34:16;99865.47;;;19.52;59.17
61055;BME280;46939;48.940;8.258;2022-09-16T06:36:45;99864.38;;;19.48;59.29
61055;BME280;46939;48.940;8.258;2022-09-16T06:39:15;99864.91;;;19.45;59.55
61055;BME280;46939;48.940;8.258;2022-09-16T06:41:44;99862.75;;;19.47;59.50
61055;BME280;46939;48.940;8.258;2022-09-16T06:44:12;99859.84;;;19.54;59.51
61055;BME280;46939;48.940;8.258;2022-09-16T06:46:41;99858.19;;;19.47;60.09
61055;BME280;46939;48.940;8.258;2022-09-16T06:49:10;99861.97;;;19.51;60.15
61055;BME280;46939;48.940;8.258;2022-09-16T06:51:41;99856.88;;;19.55;60.60
61055;BME280;46939;48.940;8.258;2022-09-16T06:54:09;99865.16;;;19.43;60.71
61055;BME280;46939;48.940;8.258;2022-09-16T06:56:38;99865.66;;;19.40;61.00
61055;BME280;46939;48.940;8.258;2022-09-16T06:59:07;99865.16;;;19.48;60.60
61055;BME280;46939;48.940;8.258;2022-09-16T07:01:39;99862.56;;;19.59;60.39
61055;BME280;46939;48.940;8.258;2022-09-16T07:04:09;99870.44;;;19.65;60.58
61055;BME280;46939;48.940;8.258;2022-09-16T07:06:40;99866.44;;;19.73;60.88
61055;BME280;46939;48.940;8.258;2022-09-16T07:09:10;99870.75;;;19.79;60.58
61055;BME280;46939;48.940;8.258;2022-09-16T07:11:39;99878.88;;;19.84;60.13
61055;BME280;46939;48.940;8.258;2022-09-16T07:14:08;99878.59;;;19.86;60.06
61055;BME280;46939;48.940;8.258;2022-09-16T07:16:37;99877.00;;;19.85;59.66
61055;BME280;46939;48.940;8.258;2022-09-16T07:19:05;99873.78;;;19.88;59.66
61055;BME280;46939;48.940;8.258;2022-09-16T07:21:34;99876.19;;;19.89;59.95
61055;BME280;46939;48.940;8.258;2022-09-16T07:24:07;99856.84;;;19.87;59.92
61055;BME280;46939;48.940;8.258;2022-09-16T07:26:44;99865.44;;;19.89;59.32
61055;BME280;46939;48.940;8.258;2022-09-16T07:29:16;99861.97;;;19.94;59.60
61055;BME280;46939;48.940;8.258;2022-09-16T07:31:46;99861.72;;;19.95;59.36
61055;BME280;46939;48.940;8.258;2022-09-16T07:34:14;99865.25;;;20.06;59.68
61055;BME280;46939;48.940;8.258;2022-09-16T07:36:48;99877.84;;;19.95;59.28
61055;BME280;46939;48.940;8.258;2022-09-16T07:39:20;99879.69;;;19.85;59.37
61055;BME280;46939;48.940;8.258;2022-09-16T07:41:50;99882.91;;;19.87;59.50
61055;BME280;46939;48.940;8.258;2022-09-16T07:44:19;99882.94;;;19.92;59.68
61055;BME280;46939;48.940;8.258;2022-09-16T07:46:48;99877.81;;;19.90;58.15
61055;BME280;46939;48.940;8.258;2022-09-16T07:49:18;99888.78;;;19.79;58.19
61055;BME280;46939;48.940;8.258;2022-09-16T07:51:47;99892.03;;;19.81;59.10
61055;BME280;46939;48.940;8.258;2022-09-16T07:54:23;99884.53;;;19.88;59.51
61055;BME280;46939;48.940;8.258;2022-09-16T07:56:51;99898.81;;;19.93;58.86
61055;BME280;46939;48.940;8.258;2022-09-16T07:59:20;99905.19;;;19.82;59.24
61055;BME280;46939;48.940;8.258;2022-09-16T08:01:48;99905.47;;;19.86;58.75
61055;BME280;46939;48.940;8.258;2022-09-16T08:04:18;99906.69;;;19.63;59.66
61055;BME280;46939;48.940;8.258;2022-09-16T08:06:47;99903.28;;;19.78;59.50
61055;BME280;46939;48.940;8.258;2022-09-16T08:09:16;99904.41;;;19.87;60.29
61055;BME280;46939;48.940;8.258;2022-09-16T08:11:48;99896.13;;;19.93;60.61
61055;BME280;46939;48.940;8.258;2022-09-16T08:14:17;99896.47;;;20.07;60.40
61055;BME280;46939;48.940;8.258;2022-09-16T08:16:45;99900.47;;;20.05;60.27
61055;BME280;46939;48.940;8.258;2022-09-16T08:19:16;99907.72;;;20.04;60.08
61055;BME280;46939;48.940;8.258;2022-09-16T08:21:45;99903.69;;;20.02;60.48
61055;BME280;46939;48.940;8.258;2022-09-16T08:24:13;99900.50;;;20.10;60.45
61055;BME280;46939;48.940;8.258;2022-09-16T08:26:42;99893.47;;;20.04;60.02
61055;BME280;46939;48.940;8.258;2022-09-16T08:29:13;99899.97;;;20.08;60.70
61055;BME280;46939;48.940;8.258;2022-09-16T08:31:42;99898.94;;;20.19;60.43
61055;BME280;46939;48.940;8.258;2022-09-16T08:34:10;99900.53;;;20.20;60.19
61055;BME280;46939;48.940;8.258;2022-09-16T08:36:40;99911.28;;;20.15;59.67
61055;BME280;46939;48.940;8.258;2022-09-16T08:39:09;99909.13;;;20.17;60.60
61055;BME280;46939;48.940;8.258;2022-09-16T08:42:06;99908.34;;;20.21;59.55
61055;BME280;46939;48.940;8.258;2022-09-16T08:44:45;99915.31;;;20.17;59.22
61055;BME280;46939;48.940;8.258;2022-09-16T08:47:29;99913.94;;;20.10;59.90
61055;BME280;46939;48.940;8.258;2022-09-16T08:50:04;99922.50;;;20.02;60.09
61055;BME280;46939;48.940;8.258;2022-09-16T08:52:35;99927.59;;;19.98;59.75
61055;BME280;46939;48.940;8.258;2022-09-16T08:55:10;99925.72;;;19.61;59.56
61055;BME280;46939;48.940;8.258;2022-09-16T08:57:42;99922.59;;;19.69;59.64
61055;BME280;46939;48.940;8.258;2022-09-16T09:00:17;99930.47;;;19.86;60.10
61055;BME280;46939;48.940;8.258;2022-09-16T09:02:50;99924.91;;;19.98;59.41
61055;BME280;46939;48.940;8.258;2022-09-16T09:05:26;99930.94;;;19.73;59.16
61055;BME280;46939;48.940;8.258;2022-09-16T09:08:15;99925.19;;;20.02;59.05
61055;BME280;46939;48.940;8.258;2022-09-16T09:10:48;99922.47;;;19.91;58.50
61055;BME280;46939;48.940;8.258;2022-09-16T09:16:35;99931.41;;;20.07;58.96
61055;BME280;46939;48.940;8.258;2022-09-16T09:19:16;99929.97;;;19.94;59.54
61055;BME280;46939;48.940;8.258;2022-09-16T09:21:55;99929.19;;;19.94;59.27
61055;BME280;46939;48.940;8.258;2022-09-16T09:24:39;99925.88;;;19.77;59.36
61055;BME280;46939;48.940;8.258;2022-09-16T09:27:13;99929.16;;;19.89;59.83
61055;BME280;46939;48.940;8.258;2022-09-16T09:29:56;99936.00;;;20.07;60.07
61055;BME280;46939;48.940;8.258;2022-09-16T09:32:39;99927.97;;;20.17;59.14
61055;BME280;46939;48.940;8.258;2022-09-16T09:35:21;99937.69;;;20.28;59.25
61055;BME280;46939;48.940;8.258;2022-09-16T09:38:10;99929.19;;;20.52;58.84
61055;BME280;46939;48.940;8.258;2022-09-16T09:40:44;99931.28;;;20.44;58.57
61055;BME280;46939;48.940;8.258;2022-09-16T09:43:17;99929.44;;;20.45;58.82
61055;BME280;46939;48.940;8.258;2022-09-16T09:45:58;99932.59;;;20.37;58.76
61055;BME280;46939;48.940;8.258;2022-09-16T09:48:34;99926.13;;;20.22;57.87
61055;BME280;46939;48.940;8.258;2022-09-16T09:51:09;99930.13;;;20.20;58.76
61055;BME280;46939;48.940;8.258;2022-09-16T09:53:42;99926.19;;;20.38;59.11
61055;BME280;46939;48.940;8.258;2022-09-16T09:56:15;99917.03;;;20.39;58.68
61055;BME280;46939;48.940;8.258;2022-09-16T09:58:52;99922.69;;;20.42;58.84
61055;BME280;46939;48.940;8.258;2022-09-16T10:01:22;99922.94;;;20.36;59.15
61055;BME280;46939;48.940;8.258;2022-09-16T10:03:54;99927.78;;;20.34;58.51
61055;BME280;46939;48.940;8.258;2022-09-16T10:06:26;99926.66;;;20.24;58.88
61055;BME280;46939;48.940;8.258;2022-09-16T10:08:56;99931.22;;;20.24;58.92
61055;BME280;46939;48.940;8.258;2022-09-16T10:11:27;99929.03;;;20.21;59.61
61055;BME280;46939;48.940;8.258;2022-09-16T10:13:58;99931.50;;;20.28;59.62
61055;BME280;46939;48.940;8.258;2022-09-16T10:16:29;99927.75;;;20.29;59.33
61055;BME280;46939;48.940;8.258;2022-09-16T10:19:04;99936.06;;;20.22;59.60
61055;BME280;46939;48.940;8.258;2022-09-16T10:21:40;99923.22;;;20.39;59.42
61055;BME280;46939;48.940;8.258;2022-09-16T10:24:27;99927.50;;;20.40;59.42
61055;BME280;46939;48.940;8.258;2022-09-16T10:26:56;99928.66;;;20.50;59.01
61055;BME280;46939;48.940;8.258;2022-09-16T10:29:25;99931.94;;;20.57;58.69
61055;BME280;46939;48.940;8.258;2022-09-16T10:31:55;99935.44;;;20.57;59.38
61055;BME280;46939;48.940;8.258;2022-09-16T10:34:32;99930.75;;;20.42;58.05
61055;BME280;46939;48.940;8.258;2022-09-16T10:37:03;99928.97;;;20.58;59.18
61055;BME280;46939;48.940;8.258;2022-09-16T10:39:43;99923.88;;;20.67;58.40
61055;BME280;46939;48.940;8.258;2022-09-16T10:42:16;99927.44;;;20.88;57.98
61055;BME280;46939;48.940;8.258;2022-09-16T10:44:46;99920.16;;;20.98;58.75
61055;BME280;46939;48.940;8.258;2022-09-16T10:47:19;99920.16;;;21.14;57.14
61055;BME280;46939;48.940;8.258;2022-09-16T10:49:53;99925.31;;;21.26;57.52
61055;BME280;46939;48.940;8.258;2022-09-16T10:52:25;99916.16;;;21.37;56.46
61055;BME280;46939;48.940;8.258;2022-09-16T10:54:55;99918.84;;;21.52;57.43
61055;BME280;46939;48.940;8.258;2022-09-16T10:57:26;99918.03;;;21.72;55.94
61055;BME280;46939;48.940;8.258;2022-09-16T11:00:00;99912.63;;;21.87;56.36
61055;BME280;46939;48.940;8.258;2022-09-16T11:02:45;99915.00;;;22.14;54.85
61055;BME280;46939;48.940;8.258;2022-09-16T11:05:29;99913.03;;;22.30;54.73
61055;BME280;46939;48.940;8.258;2022-09-16T11:08:08;99921.91;;;22.36;52.56
61055;BME280;46939;48.940;8.258;2022-09-16T11:10:43;99919.44;;;22.50;52.72
61055;BME280;46939;48.940;8.258;2022-09-16T11:13:26;99917.75;;;22.59;47.60
61055;BME280;46939;48.940;8.258;2022-09-16T11:16:09;99913.81;;;22.41;50.39
61055;BME280;46939;48.940;8.258;2022-09-16T11:18:54;99912.50;;;22.28;50.44
61055;BME280;46939;48.940;8.258;2022-09-16T11:21:40;99910.44;;;21.79;50.79
61055;BME280;46939;48.940;8.258;2022-09-16T11:24:29;99912.34;;;21.79;51.37
61055;BME280;46939;48.940;8.258;2022-09-16T11:27:06;99916.34;;;21.97;50.08
61055;BME280;46939;48.940;8.258;2022-09-16T11:29:52;99913.66;;;21.97;49.71
61055;BME280;46939;48.940;8.258;2022-09-16T11:32:32;99912.38;;;22.54;48.56
61055;BME280;46939;48.940;8.258;2022-09-16T11:35:25;99914.66;;;22.31;46.12
61055;BME280;46939;48.940;8.258;2022-09-16T11:38:02;99916.06;;;22.73;46.71
61055;BME280;46939;48.940;8.258;2022-09-16T11:40:44;99909.25;;;22.81;43.47
61055;BME280;46939;48.940;8.258;2022-09-16T11:46:10;99898.94;;;22.93;43.76
61055;BME280;46939;48.940;8.258;2022-09-16T11:48:55;99903.31;;;22.84;42.34
61055;BME280;46939;48.940;8.258;2022-09-16T11:51:39;99904.19;;;23.13;41.28
61055;BME280;46939;48.940;8.258;2022-09-16T11:54:27;99895.81;;;23.44;40.03
61055;BME280;46939;48.940;8.258;2022-09-16T11:57:03;99905.78;;;24.02;40.94
61055;BME280;46939;48.940;8.258;2022-09-16T11:59:38;99891.25;;;24.22;40.58
61055;BME280;46939;48.940;8.258;2022-09-16T12:02:15;99889.63;;;23.97;37.85
61055;BME280;46939;48.940;8.258;2022-09-16T12:04:52;99886.75;;;24.12;39.07
61055;BME280;46939;48.940;8.258;2022-09-16T12:07:26;99873.56;;;24.67;39.04
61055;BME280;46939;48.940;8.258;2022-09-16T12:10:10;99886.22;;;25.09;38.82
61055;BME280;46939;48.940;8.258;2022-09-16T12:12:46;99876.97;;;25.29;36.33
61055;BME280;46939;48.940;8.258;2022-09-16T12:15:19;99873.03;;;25.03;34.58
61055;BME280;46939;48.940;8.258;2022-09-16T12:17:52;99870.06;;;25.51;34.95
61055;BME280;46939;48.940;8.258;2022-09-16T12:20:25;99869.03;;;24.63;35.10
61055;BME280;46939;48.940;8.258;2022-09-16T12:23:01;99858.81;;;24.17;36.78
61055;BME280;46939;48.940;8.258;2022-09-16T12:25:38;99862.34;;;24.36;37.72
61055;BME280;46939;48.940;8.258;2022-09-16T12:28:14;99865.44;;;24.48;38.29
61055;BME280;46939;48.940;8.258;2022-09-16T12:30:49;99861.22;;;24.61;37.40
61055;BME280;46939;48.940;8.258;2022-09-16T12:33:21;99857.50;;;24.14;36.30
61055;BME280;46939;48.940;8.258;2022-09-16T12:36:04;99866.78;;;24.51;35.63
61055;BME280;46939;48.940;8.258;2022-09-16T12:38:34;99867.72;;;24.41;37.68
61055;BME280;46939;48.940;8.258;2022-09-16T12:41:18;99857.09;;;24.26;37.14
61055;BME280;46939;48.940;8.258;2022-09-16T12:44:15;99854.75;;;24.38;37.71
61055;BME280;46939;48.940;8.258;2022-09-16T12:47:03;99850.88;;;24.01;36.73
61055;BME280;46939;48.940;8.258;2022-09-16T12:49:53;99852.03;;;23.71;36.67
61055;BME280;46939;48.940;8.258;2022-09-16T12:52:30;99841.16;;;24.00;35.81
61055;BME280;46939;48.940;8.258;2022-09-16T12:55:25;99833.56;;;24.21;36.07
61055;BME280;46939;48.940;8.258;2022-09-16T12:58:18;99831.00;;;23.63;36.34
61055;BME280;46939;48.940;8.258;2022-09-16T13:00:55;99841.09;;;23.28;37.00
61055;BME280;46939;48.940;8.258;2022-09-16T13:03:28;99827.75;;;23.66;35.42
61055;BME280;46939;48.940;8.258;2022-09-16T13:06:04;99827.34;;;23.78;34.73
61055;BME280;46939;48.940;8.258;2022-09-16T13:08:34;99824.59;;;23.83;34.25
61055;BME280;46939;48.940;8.258;2022-09-16T13:11:07;99833.34;;;23.75;35.40
61055;BME280;46939;48.940;8.258;2022-09-16T13:13:50;99833.75;;;24.30;35.87
61055;BME280;46939;48.940;8.258;2022-09-16T13:16:28;99828.97;;;24.03;33.54
61055;BME280;46939;48.940;8.258;2022-09-16T13:19:25;99829.53;;;24.43;35.06
61055;BME280;46939;48.940;8.258;2022-09-16T13:21:58;99829.34;;;25.23;34.76
61055;BME280;46939;48.940;8.258;2022-09-16T13:24:35;99838.63;;;25.50;33.61
61055;BME280;46939;48.940;8.258;2022-09-16T13:27:24;99827.19;;;25.67;32.26
61055;BME280;46939;48.940;8.258;2022-09-16T13:30:29;99825.69;;;26.02;33.99
61055;BME280;46939;48.940;8.258;2022-09-16T13:35:43;99825.16;;;26.27;33.47
61055;BME280;46939;48.940;8.258;2022-09-16T13:38:34;99816.50;;;26.25;32.73
61055;BME280;46939;48.940;8.258;2022-09-16T13:41:05;99817.84;;;25.87;31.96
61055;BME280;46939;48.940;8.258;2022-09-16T13:43:35;99824.06;;;25.46;31.83
61055;BME280;46939;48.940;8.258;2022-09-16T13:46:08;99809.69;;;25.31;32.30
61055;BME280;46939;48.940;8.258;2022-09-16T13:48:44;99808.78;;;25.36;31.80